KBAX

Huron County Memorial Airport

Bad Axe, Michigan, USA
METAR KBAX 190715Z AUTO 00000KT 10SM CLR 11/11 A3008 RMK AO2 T01130105
Observed Flight Rules
Jul-19 @ 07:15 UTC (15 minutes ago) Visual Flight Rules
Visibility Clouds
10 miles
  • Clear skies
Temperatures Readings
Current 11°C / 52°F
Dewpoint 11°C / 52°F
Humidity 100%
Altimeter 30.08" Hg
Pressure 1019 hPa
Elevation 234
METAR KBAX 190715Z AUTO 00000KT 10SM CLR 11/11 A3008 RMK AO2 T01130105
Observed Flight Rules
Jul-19 @ 07:15 UTC
(15 minutes ago)
VFR
Clouds
  • Clear skies
Temperature Dewpoint
11°C / 52°F 11°C / 52°F
Humidity Altimeter Pressure
100% 30.08" Hg 1019 hPa